Tiempo atmosférico en la estación meteorológica de Carballiño, O, Ourense (400 m.)



Fecha
DESCASC
Temp. máxima en grados centígrados (hora)
DESCASC
Temp. mínima en grados centígrados (hora)
DESCASC
Temp. media en grados centígrados
DESCASC
Racha de viento máxima en m/sg (hora)
DESCASC
Velocidad máxima media en intervalos de 10 minutos(hora)
DESCASC
Precipitaciones diarias en mm
DESCASC
Precipitaciones de 00:00 a 06:00 en mm
DESCASC
Precipitaciones de 06:00 a 12:00 en mm
DESCASC
Precipitaciones de 12:00 a 18:00 en mm
DESCASC
Precipitaciones de 18:00 a 24:00 en mm
DESCASC
25-04-2019 11.2 (18:00) 5.5 (08:20) 8.3 13.89 (15:20) 6.67 (15:20) 18.1 3.2 3.3 5.6 6
24-04-2019 12.6 (14:40) 4.8 (07:00) 8.7 13.61 (13:30) 3.33 (21:10) 9.4 2.3 2.7 1.8 2.6
23-04-2019 11.3 (18:20) 5.1 (12:30) 8.2 7.22 (19:00) 2.78 (19:00) 7.7 1.8 4.2 1.7 0
22-04-2019 -- (--) -- (--) -- 8.33 (15:00) 2.78 (15:20) 6.1 0 0 0 6.1
21-04-2019 -- (--) -- (--) -- 10 (16:50) 4.17 (13:00) 0 0 0 0 0
20-04-2019 27.4 (17:00) 7.3 (00:00) 17.3 11.67 (20:30) 4.72 (20:10) 0 0 0 0 0
19-04-2019 21.6 (18:00) 9.4 (00:00) 15.5 10 (11:10) 3.61 (13:20) 0 0 0 0 0
18-04-2019 20.3 (17:10) 8.7 (00:00) 14.5 6.67 (19:30) 2.5 (19:30) 2.3 1.1 0 0 1.2
17-04-2019 15.8 (13:40) 7.7 (00:00) 11.8 5.83 (14:20) 1.39 (14:00) 6.7 0 0 2.5 4.2
16-04-2019 20.9 (17:20) 2.9 (00:00) 11.9 4.72 (13:40) 0.83 (13:40) 0 0 0 0 0
15-04-2019 15.8 (00:00) 7.4 (00:00) 11.6 7.78 (17:40) 3.33 (16:30) 5.6 0.5 2.4 2.7 0
14-04-2019 21.1 (16:50) 12.8 (00:00) 17 4.72 (17:20) 0.56 (16:50) 0.2 0.1 0.1 0 0
13-04-2019 18.4 (15:00) 8 (00:00) 13.2 3.89 (16:00) 1.11 (14:30) 0.8 0 0 0.8 0
12-04-2019 21.5 (18:40) 1 (00:00) 11.3 5.28 (17:30) 2.5 (19:50) 0 0 0 0 0
11-04-2019 17.1 (16:20) 0.8 (00:00) 9 4.72 (19:40) 1.67 (19:00) 0 0 0 0 0
10-04-2019 16.2 (17:00) 5.6 (00:00) 10.9 7.78 (15:40) 3.33 (16:20) 1.1 0.9 0.1 0 0.1
09-04-2019 11.4 (17:50) 6.4 (00:00) 8.9 7.78 (16:20) 2.22 (16:00) 19.8 8.3 4.3 1.6 5.6
08-04-2019 14.6 (15:10) 5 (00:00) 9.8 10.28 (14:30) 2.5 (14:30) 7.6 1 0.7 0.4 5.5
07-04-2019 -- (--) -- (--) -- -- (--) -- (--) -- -- -- 4.9 18.5
06-04-2019 -- (--) -- (--) -- -- (--) -- (--) -- 10.8 7.8 3.7 --
05-04-2019 8.8 (17:30) 2.8 (00:00) 5.8 5.83 (14:10) 1.67 (19:30) 13.3 3.2 1 7.2 1.9
04-04-2019 9.1 (13:20) 0 (00:00) 4.6 5.83 (17:30) 1.94 (21:20) 12.5 0 0 0.2 12.3
03-04-2019 13.4 (18:10) 3.2 (00:00) 8.3 12.22 (16:20) 3.89 (16:20) 0.7 0.1 0 0.4 0.2
02-04-2019 18.9 (17:30) 2.6 (00:00) 10.7 8.89 (20:10) 3.33 (18:30) 0 0 0 0 0
01-04-2019 22.9 (15:10) 3.5 (00:00) 13.2 8.61 (15:30) 3.89 (15:30) 1 0 0 1 0
31-03-2019 22.6 (14:50) 3.3 (00:00) 13 7.5 (19:10) 3.33 (19:20) 0 0 0 0 0
30-03-2019 22.6 (14:10) 2.4 (00:00) 12.5 5.56 (18:20) 2.5 (17:50) 0 0 0 0 0
29-03-2019 24.6 (16:00) 2.4 (00:00) 13.5 6.94 (17:10) 3.33 (16:50) 0 0 0 0 0
28-03-2019 25 (16:00) 1.3 (00:00) 13.1 4.72 (14:40) 1.11 (13:40) 0 0 0 0 0
27-03-2019 24.8 (17:10) -0.1 (00:00) 12.3 5.83 (18:30) 2.5 (18:10) 0 0 0 0 0

Gráficas

Temp. máximas Temp. mínimas Temp. medias Precipitaciones Rachas de viento máximas Velocidades máximas media en intervalos de 10 minutos

Datos horarios

Fecha y hora oficial Temperatura (ºC) Velocidad del viento (km/h) Dirección del viento Racha (km/h) Dirección de racha Precipitación (mm) Presión (hPa) Tendencia (hPa) Humedad (%)
2019-04-25 23:00:00 8.8 5 Oeste 20 Oeste 0.1 -- -- 96
2019-04-25 22:00:00 8.8 0 Calma 8 Sudoeste 1 -- -- 96
2019-04-25 21:00:00 9 0 Calma 15 Oeste 1.4 -- -- 96
2019-04-25 20:00:00 8.5 2 Sudoeste 15 Oeste 1.9 -- -- 94
2019-04-25 19:00:00 9 2 Oeste 25 Sudoeste 1.5 -- -- 90
2019-04-25 18:00:00 10.9 2 Sudoeste 22 Oeste 0 -- -- 80
2019-04-25 17:00:00 8.9 3 Oeste 31 Oeste 0.7 -- -- 93
2019-04-25 16:00:00 8.6 4 Oeste 50 Oeste 1.6 -- -- 94
2019-04-25 15:00:00 10 3 Sudoeste 28 Sudoeste 0.6 -- -- 91
2019-04-25 14:00:00 8.4 3 Oeste 23 Sudoeste 0.9 -- -- 93
2019-04-25 13:00:00 7.9 0 Calma 21 Sudoeste 1.8 -- -- 94
2019-04-25 12:00:00 8.8 3 Sudoeste 15 Sudeste 0.3 -- -- 92
2019-04-25 11:00:00 8.2 0 Calma 19 Sudoeste 0.4 -- -- 95
2019-04-25 10:00:00 6.6 0 Calma 13 Oeste 1.1 -- -- 98
2019-04-25 09:00:00 6.2 2 Sudoeste 20 Oeste 0.8 -- -- 98
2019-04-25 08:00:00 5.7 0 Calma 10 Sudoeste 0.7 -- -- 97
2019-04-25 07:00:00 5.7 0 Calma 12 Sudoeste 0 -- -- 96
2019-04-25 06:00:00 5.8 3 Sudoeste 24 Oeste 0.8 -- -- 96
2019-04-25 05:00:00 6 2 Oeste 14 Sur 1.1 -- -- 96
2019-04-25 04:00:00 6.2 0 Calma 21 Oeste 1.2 -- -- 95
2019-04-25 03:00:00 6.3 0 Calma 9 Sudeste 0 -- -- 95
2019-04-25 02:00:00 6.4 0 Calma 13 Sudoeste 0.1 -- -- 96
2019-04-25 01:00:00 6.3 0 Calma 12 Sur 0 -- -- 96
2019-04-25 00:00:00 6.6 0 Calma 28 Noroeste 0.4 -- -- 94
2019-04-24 23:00:00 6.8 0 Calma 9 Sur 0 -- -- 95
2019-04-24 22:00:00 6.7 0 Calma 39 Norte 1.1 -- -- 92
2019-04-24 21:00:00 8.3 2 Oeste 15 Sudoeste 0.6 -- -- 90
2019-04-24 20:00:00 9.6 0 Calma 20 Oeste 0.4 -- -- 89
2019-04-24 19:00:00 9.1 5 Oeste 33 Oeste 0.1 -- -- 88
2019-04-24 18:00:00 9.1 2 Sudoeste 24 Oeste 0.5 -- -- 93
2019-04-24 17:00:00 9.1 0 Calma 21 Sudoeste 0.2 -- -- 88
2019-04-24 16:00:00 9.3 3 Sudoeste 24 Sudoeste 0.5 -- -- 86
2019-04-24 15:00:00 11.4 6 Sudoeste 32 Sudoeste 0 -- -- 76
2019-04-24 14:00:00 10.2 4 Oeste 49 Oeste 0.3 -- -- 87
2019-04-24 13:00:00 9.6 4 Sudoeste 29 Sur 0.3 -- -- 91
2019-04-24 12:00:00 9.8 4 Sudoeste 22 Oeste 0.2 -- -- 95
2019-04-24 11:00:00 7.7 0 Calma 11 Este 0.4 -- -- 99
2019-04-24 10:00:00 6.1 3 Este 9 Este 0.6 -- -- 98
2019-04-24 09:00:00 5.4 0 Calma 9 Este 0.6 -- -- 97
2019-04-24 08:00:00 4.8 0 Calma 15 Este 0.1 -- -- 98
2019-04-24 07:00:00 5 3 Este 15 Este 0.8 -- -- 97
2019-04-24 06:00:00 5.3 3 Este 12 Este 0.4 -- -- 98
2019-04-24 05:00:00 5.6 0 Calma 9 Sudeste 0.8 -- -- 97
2019-04-24 04:00:00 5.9 0 Calma 13 Sudeste 1 -- -- 96
2019-04-24 03:00:00 5.5 0 Calma 8 Este 0 -- -- 95
2019-04-24 02:00:00 5.5 0 Calma 9 Sudoeste 0.1 -- -- 93
2019-04-24 01:00:00 5.6 0 Calma 5 Sudoeste 0 -- -- 92
2019-04-24 00:00:00 6.1 0 Calma 10 Sudeste 0 -- -- 90
2019-04-23 23:00:00 6.9 0 Calma 6 Oeste 0 -- -- 86
2019-04-23 22:00:00 7.1 0 Calma 10 Sudeste 0 -- -- 82
2019-04-23 21:00:00 8.3 3 Oeste 12 Oeste 0 -- -- 78
2019-04-23 20:00:00 9.5 3 Oeste 19 Oeste 0 -- -- 72
2019-04-23 19:00:00 8.9 10 Oeste 26 Oeste 0 -- -- 67
2019-04-23 18:00:00 10.8 0 Calma 10 Noroeste 0 -- -- 77
2019-04-23 17:00:00 9.2 4 Oeste 18 Oeste 0.2 -- -- 81
2019-04-23 16:00:00 10.4 0 Calma 15 Oeste 0 -- -- 84
2019-04-23 15:00:00 9.2 2 Sur 12 Sur 0.2 -- -- 90
2019-04-23 14:00:00 7.4 0 Calma 6 Oeste 0.5 -- -- 94
2019-04-23 13:00:00 5.5 2 Oeste 9 Oeste 0.8 -- -- 93
2019-04-23 12:00:00 5.3 0 Calma 19 Oeste 3.1 -- -- 93
2019-04-23 11:00:00 7.3 2 Sur 18 Sur 0.3 -- -- 95
2019-04-23 10:00:00 6.8 0 Calma 12 Sudeste 0.4 -- -- 96
2019-04-23 09:00:00 6 0 Calma 8 Sur 0 -- -- 97
2019-04-23 08:00:00 6.2 0 Calma 13 Oeste 0.3 -- -- 97
2019-04-23 07:00:00 6.6 0 Calma 0 Calma 0.1 -- -- 97
2019-04-23 06:00:00 6.8 0 Calma 0 Calma 0 -- -- 97
2019-04-23 05:00:00 7 0 Calma 9 Sudeste 0.4 -- -- 97
2019-04-23 04:00:00 7.3 0 Calma 5 Sur 0 -- -- 97
2019-04-23 03:00:00 7.4 0 Calma 6 Sur 0 -- -- 97
2019-04-23 02:00:00 7.7 0 Calma 12 Sudeste 0.8 -- -- 97
2019-04-23 01:00:00 8.3 0 Calma 10 Sudoeste 0.6 -- -- 95
2019-04-23 00:00:00 8.7 0 Calma 9 Noroeste 0.6 -- -- 93
2019-04-22 23:00:00 9.1 0 Calma 24 Oeste 4.7 -- -- 91
2019-04-22 22:00:00 11.6 0 Calma 19 Sur 0.6 -- -- 87
2019-04-22 21:00:00 12.7 0 Calma 13 Sur 0 -- -- 79
2019-04-22 20:00:00 13.2 2 Sudoeste 18 Sudoeste 0.2 -- -- 68
2019-04-22 19:00:00 14.7 8 Oeste 27 Oeste 0 -- -- 55
2019-04-22 18:00:00 16.7 0 Calma 18 Sudoeste 0 -- -- 57
2019-04-22 17:00:00 16.6 5 Oeste 22 Oeste 0 -- -- 56
2019-04-22 16:00:00 18.1 7 Oeste 26 Oeste 0 -- -- 48
2019-04-22 15:00:00 18.1 9 Oeste 30 Oeste 0 -- -- 52
2019-04-22 14:00:00 19.1 2 Sudoeste 15 Sudeste 0 -- -- 52
2019-04-22 13:00:00 17.9 0 Calma 13 Sur 0 -- -- 58
2019-04-22 12:00:00 16.1 0 Calma 7 Sudeste 0 -- -- 60
2019-04-22 11:00:00 15.5 0 Calma 5 Sudeste 0 -- -- 65
2019-04-22 10:00:00 -- 0 Calma 0 Calma 0 -- -- --
2019-04-22 09:00:00 -- 0 Calma 0 Calma 0 -- -- --
2019-04-22 08:00:00 -- 0 Calma 0 Calma 0 -- -- --
2019-04-22 07:00:00 -- 0 Calma 5 Nordeste 0 -- -- --
2019-04-22 06:00:00 -- 0 Calma 0 Calma 0 -- -- --
2019-04-22 05:00:00 -- 0 Calma 0 Calma 0 -- -- --
2019-04-22 04:00:00 -- 0 Calma 0 Calma 0 -- -- --
2019-04-22 03:00:00 -- 0 Calma 4 Nordeste 0 -- -- --
2019-04-22 02:00:00 -- 0 Calma -- -- 0 -- -- --
2019-04-22 01:00:00 -- 0 Calma 6 Oeste 0 -- -- --
2019-04-22 00:00:00 -- 0 Calma 12 Noroeste 0 -- -- --
2019-04-21 23:00:00 -- 3 Norte 18 Norte 0 -- -- --
2019-04-21 22:00:00 -- 3 Norte 20 Norte 0 -- -- --
2019-04-21 21:00:00 -- 8 Norte 22 Norte 0 -- -- --
2019-04-21 20:00:00 -- 8 Norte 30 Noroeste 0 -- -- --
2019-04-21 19:00:00 -- 10 Norte 31 Norte 0 -- -- --
2019-04-21 18:00:00 -- 8 Norte 35 Nordeste 0 -- -- --
2019-04-21 17:00:00 -- 11 Nordeste 36 Este 0 -- -- --
2019-04-21 16:00:00 -- 10 Nordeste 34 Nordeste 0 -- -- --
2019-04-21 15:00:00 -- 10 Nordeste 30 Norte 0 -- -- --
2019-04-21 14:00:00 -- 11 Nordeste 30 Nordeste 0 -- -- --
2019-04-21 13:00:00 -- 15 Nordeste 33 Nordeste 0 -- -- --
2019-04-21 12:00:00 -- 0 Calma 8 Sudeste 0 -- -- --
2019-04-21 11:00:00 15.7 0 Calma 5 Sur 0 -- -- 59
2019-04-21 10:00:00 11.9 0 Calma -- -- 0 -- -- 78
2019-04-21 09:00:00 6.6 0 Calma -- -- 0 -- -- 90
2019-04-21 08:00:00 6.4 0 Calma -- -- 0 -- -- 86
2019-04-21 07:00:00 7.5 0 Calma -- -- 0 -- -- 80
2019-04-21 06:00:00 9 0 Calma 6 Este 0 -- -- 73
2019-04-21 05:00:00 10.8 0 Calma 10 Nordeste 0 -- -- 67
2019-04-21 04:00:00 9.8 0 Calma -- -- 0 -- -- 71
2019-04-21 03:00:00 12 0 Calma 8 Nordeste 0 -- -- 60
2019-04-21 02:00:00 14.9 0 Calma 26 Nordeste 0 -- -- 50
2019-04-21 01:00:00 15.9 8 Nordeste 25 Este 0 -- -- 49
2019-04-21 00:00:00 16.5 2 Este 32 Nordeste 0 -- -- 46
2019-04-20 23:00:00 16.9 9 Nordeste 39 Nordeste 0 -- -- 48
2019-04-20 22:00:00 18.3 13 Nordeste 41 Nordeste 0 -- -- 45
2019-04-20 21:00:00 20 15 Nordeste 42 Nordeste 0 -- -- 41
2019-04-20 20:00:00 22.8 13 Norte 41 Noroeste 0 -- -- 37
2019-04-20 19:00:00 24.9 10 Nordeste 37 Nordeste 0 -- -- 33
2019-04-20 18:00:00 26 9 Norte 33 Nordeste 0 -- -- 30
2019-04-20 17:00:00 27.4 9 Nordeste 31 Este 0 -- -- 29
2019-04-20 16:00:00 26.8 9 Nordeste 29 Nordeste 0 -- -- 32
2019-04-20 15:00:00 25.5 12 Nordeste 27 Nordeste 0 -- -- 35
2019-04-20 14:00:00 24 8 Nordeste 30 Nordeste 0 -- -- 39
2019-04-20 13:00:00 22.1 8 Nordeste 25 Nordeste 0 -- -- 42
2019-04-20 12:00:00 18.8 0 Calma 6 Oeste 0 -- -- 55
2019-04-20 11:00:00 17.5 0 Calma 2 Sudeste 0 -- -- 57
2019-04-20 10:00:00 11.9 0 Calma 0 Calma 0 -- -- 92
2019-04-20 09:00:00 8 0 Calma 0 Calma 0 -- -- 96
2019-04-20 08:00:00 7.5 0 Calma -- -- 0 -- -- 95
2019-04-20 07:00:00 8.1 0 Calma -- -- 0 -- -- 93
2019-04-20 06:00:00 9.2 0 Calma 0 Calma 0 -- -- 91
2019-04-20 05:00:00 10 0 Calma -- -- 0 -- -- 86
2019-04-20 04:00:00 11.7 0 Calma 3 Sur 0 -- -- 79
2019-04-20 03:00:00 14 0 Calma 12 Nordeste 0 -- -- 71
2019-04-20 02:00:00 14.9 4 Nordeste 15 Norte 0 -- -- 70
2019-04-20 01:00:00 14.6 4 Nordeste 25 Nordeste 0 -- -- 75
2019-04-20 00:00:00 14.2 8 Nordeste 26 Nordeste 0 -- -- 78
2019-04-19 23:00:00 15.1 0 Calma 18 Nordeste 0 -- -- 73
2019-04-19 22:00:00 16.1 5 Nordeste 21 Nordeste 0 -- -- 67
2019-04-19 21:00:00 17.5 6 Nordeste 22 Nordeste 0 -- -- 60
2019-04-19 20:00:00 19.1 5 Nordeste 24 Nordeste 0 -- -- 52
2019-04-19 19:00:00 19.8 6 Este 27 Este 0 -- -- 44
2019-04-19 18:00:00 21.6 9 Este 30 Este 0 -- -- 41
2019-04-19 17:00:00 20.9 10 Este 28 Este 0 -- -- 40
2019-04-19 16:00:00 20.5 8 Este 31 Sudeste 0 -- -- 43
2019-04-19 15:00:00 18.9 8 Este 31 Nordeste 0 -- -- 46
2019-04-19 14:00:00 18.9 9 Este 35 Este 0 -- -- 48
2019-04-19 13:00:00 17.7 9 Este 30 Este 0 -- -- 51
2019-04-19 12:00:00 16.5 6 Nordeste 36 Nordeste 0 -- -- 57
2019-04-19 11:00:00 16.1 11 Nordeste 29 Nordeste 0 -- -- 65
2019-04-19 10:00:00 13.3 10 Nordeste 29 Nordeste 0 -- -- 77
2019-04-19 09:00:00 12.4 8 Nordeste 27 Nordeste 0 -- -- 83
2019-04-19 08:00:00 10.4 0 Calma -- -- 0 -- -- 94
2019-04-19 07:00:00 10.2 0 Calma 5 Nordeste 0 -- -- 93
2019-04-19 06:00:00 9.9 0 Calma -- -- 0 -- -- 92
2019-04-19 05:00:00 10 0 Calma 10 Norte 0 -- -- 90
2019-04-19 04:00:00 9.8 2 Norte 18 Norte 0 -- -- 90
2019-04-19 03:00:00 9.6 2 Noroeste 14 Norte 0 -- -- 90
2019-04-19 02:00:00 9.8 0 Calma -- -- 0 -- -- 88
2019-04-19 01:00:00 10.9 0 Calma 7 Norte 0 -- -- 83
2019-04-19 00:00:00 11.8 0 Calma 15 Norte 0 -- -- 79
2019-04-18 23:00:00 12 0 Calma 13 Norte 0 -- -- 86
2019-04-18 22:00:00 12.9 0 Calma 11 Nordeste 0 -- -- 91
2019-04-18 21:00:00 13.2 0 Calma -- -- 0.1 -- -- 90
2019-04-18 20:00:00 13.7 0 Calma 24 Noroeste 0.6 -- -- 84
2019-04-18 19:00:00 14.9 5 Oeste 14 Oeste 0.5 -- -- 76
2019-04-18 18:00:00 19.4 0 Calma 11 Sudeste 0 -- -- 46
2019-04-18 17:00:00 20 0 Calma 11 Sudoeste 0 -- -- 46
2019-04-18 16:00:00 19 0 Calma 9 Sur 0 -- -- 43
2019-04-18 15:00:00 18.2 0 Calma 13 Sudeste 0 -- -- 46
2019-04-18 14:00:00 17.7 2 Sudeste 14 Este 0 -- -- 49
2019-04-18 13:00:00 17.2 3 Este 11 Sudeste 0 -- -- 57
2019-04-18 12:00:00 14.9 0 Calma 9 Sur 0 -- -- 69
2019-04-18 11:00:00 14 0 Calma 8 Este 0 -- -- 73
2019-04-18 10:00:00 11 0 Calma 5 Este 0 -- -- 93
2019-04-18 09:00:00 9.6 0 Calma 0 Calma 0 -- -- 98
2019-04-18 08:00:00 8.8 0 Calma 5 Nordeste 0 -- -- 98
2019-04-18 07:00:00 8.8 0 Calma 8 Nordeste 0 -- -- 98
2019-04-18 06:00:00 8.9 0 Calma 0 Calma 0 -- -- 97
2019-04-18 05:00:00 9.7 0 Calma -- -- 0.1 -- -- 97
2019-04-18 04:00:00 10.2 0 Calma -- -- 0 -- -- 97
2019-04-18 03:00:00 10.3 0 Calma 0 Calma 0.1 -- -- 97
2019-04-18 02:00:00 10.5 0 Calma 5 Este 0.4 -- -- 97
2019-04-18 01:00:00 10.5 0 Calma 3 Este 0.5 -- -- 97
2019-04-18 00:00:00 10.7 0 Calma 4 Nordeste 0.2 -- -- 96
2019-04-17 23:00:00 10.9 0 Calma -- -- 0.1 -- -- 96
2019-04-17 22:00:00 11.1 0 Calma -- -- 0.4 -- -- 95
2019-04-17 21:00:00 11.6 0 Calma -- -- 0.2 -- -- 94
2019-04-17 20:00:00 11.7 0 Calma 0 Calma 1.2 -- -- 93
2019-04-17 19:00:00 12.1 0 Calma 2 Sur 2.1 -- -- 91
2019-04-17 18:00:00 12.8 0 Calma 6 Oeste 2.1 -- -- 90
2019-04-17 17:00:00 13.8 0 Calma 16 Sudeste 0.3 -- -- 81
2019-04-17 16:00:00 15.1 2 Sur 14 Sur 0.1 -- -- 71
2019-04-17 15:00:00 15 2 Sudeste 21 Sur 0 -- -- 61
2019-04-17 14:00:00 15 5 Sur 20 Sudeste 0 -- -- 60
2019-04-17 13:00:00 15.1 0 Calma 18 Sur 0 -- -- 63
2019-04-17 12:00:00 13 0 Calma 8 Sudeste 0 -- -- 76
2019-04-17 11:00:00 11.1 0 Calma 2 Norte 0 -- -- 92
2019-04-17 10:00:00 9.6 0 Calma -- -- 0 -- -- 95
2019-04-17 09:00:00 8.6 0 Calma -- -- 0 -- -- 94
2019-04-17 08:00:00 8.1 0 Calma -- -- 0 -- -- 93
2019-04-17 07:00:00 8.2 0 Calma -- -- 0 -- -- 93
2019-04-17 06:00:00 8.2 0 Calma -- -- 0 -- -- 93
2019-04-17 05:00:00 8.3 0 Calma -- -- 0 -- -- 92
2019-04-17 04:00:00 8.1 0 Calma -- -- 0 -- -- 89
2019-04-17 03:00:00 8.6 0 Calma -- -- 0 -- -- 87
2019-04-17 02:00:00 9.2 0 Calma 0 Calma 0 -- -- 85
2019-04-17 01:00:00 9.9 0 Calma -- -- 0 -- -- 83
2019-04-17 00:00:00 11 0 Calma -- -- 0 -- -- 79
2019-04-16 23:00:00 12.7 0 Calma -- -- 0 -- -- 73
2019-04-16 22:00:00 14.4 0 Calma -- -- 0 -- -- 64
2019-04-16 21:00:00 16.9 0 Calma 6 Oeste 0 -- -- 50
2019-04-16 20:00:00 18.6 0 Calma 10 Oeste 0 -- -- 43
2019-04-16 19:00:00 20.1 0 Calma 7 Sudoeste 0 -- -- 40
2019-04-16 18:00:00 20.4 0 Calma 10 Sur 0 -- -- 40
2019-04-16 17:00:00 20.3 0 Calma 12 Sudoeste 0 -- -- 40
2019-04-16 16:00:00 19.1 2 Oeste 15 Oeste 0 -- -- 41
2019-04-16 15:00:00 18.7 0 Calma 14 Sudeste 0 -- -- 48
2019-04-16 14:00:00 16.9 2 Este 17 Sudeste 0 -- -- 51
2019-04-16 13:00:00 14.5 2 Este 15 Sudeste 0 -- -- 60
2019-04-16 12:00:00 12.4 0 Calma 13 Este 0 -- -- 69
2019-04-16 11:00:00 10.3 0 Calma 8 Este 0 -- -- 89
2019-04-16 10:00:00 6 0 Calma 2 Nordeste 0 -- -- 99
2019-04-16 09:00:00 3.3 0 Calma -- -- 0 -- -- 98
2019-04-16 08:00:00 3 0 Calma -- -- 0 -- -- 97
2019-04-16 07:00:00 3.4 0 Calma -- -- 0 -- -- 97
2019-04-16 06:00:00 3.7 0 Calma 6 Nordeste 0 -- -- 97
2019-04-16 05:00:00 4.1 0 Calma 12 Nordeste 0 -- -- 96
2019-04-16 04:00:00 4.4 0 Calma 9 Nordeste 0 -- -- 95
2019-04-16 03:00:00 5.2 0 Calma 9 Nordeste 0 -- -- 94
2019-04-16 02:00:00 5.5 0 Calma -- -- 0 -- -- 92
2019-04-16 01:00:00 6.4 0 Calma -- -- 0 -- -- 91
2019-04-16 00:00:00 7.4 0 Calma -- -- 0 -- -- 87
2019-04-15 23:00:00 8.8 0 Calma -- -- 0 -- -- 83
2019-04-15 22:00:00 10.3 0 Calma 9 Noroeste 0 -- -- 74
2019-04-15 21:00:00 12.1 0 Calma 13 Oeste 0 -- -- 64
2019-04-15 20:00:00 13.4 3 Sudoeste 19 Sudoeste 0 -- -- 56
2019-04-15 19:00:00 14.8 3 Sudoeste 24 Noroeste 0 -- -- 61
2019-04-15 18:00:00 13.8 9 Oeste 28 Oeste 0.1 -- -- 62
2019-04-15 17:00:00 14.9 0 Calma 26 Noroeste 0 -- -- 65
2019-04-15 16:00:00 15 7 Oeste 28 Noroeste 0 -- -- 70
2019-04-15 15:00:00 12.4 2 Sudoeste 20 Sudoeste 0.1 -- -- 92
2019-04-15 14:00:00 11.2 2 Sudoeste 12 Oeste 0.9 -- -- 95
2019-04-15 13:00:00 11.7 0 Calma 10 Oeste 1.6 -- -- 95
2019-04-15 12:00:00 11.7 0 Calma 15 Oeste 0.2 -- -- 92
2019-04-15 11:00:00 12.1 5 Oeste 23 Sudoeste 2.1 -- -- 89
2019-04-15 10:00:00 14.2 0 Calma 16 Oeste 0 -- -- 86
2019-04-15 09:00:00 13.8 0 Calma 13 Sudoeste 0 -- -- 91
2019-04-15 08:00:00 13.6 0 Calma 12 Sudoeste 0 -- -- 97
2019-04-15 07:00:00 13.9 0 Calma 14 Sudeste 0.1 -- -- 97
2019-04-15 06:00:00 13.6 0 Calma -- -- 0.4 -- -- 95
2019-04-15 05:00:00 13.5 0 Calma -- -- 0 -- -- 95
2019-04-15 04:00:00 13.8 0 Calma -- -- 0.1 -- -- 94
2019-04-15 03:00:00 14.2 0 Calma -- -- 0 -- -- 92
2019-04-15 02:00:00 14.4 0 Calma -- -- 0 -- -- 90
2019-04-15 01:00:00 15 0 Calma -- -- 0 -- -- 87
2019-04-15 00:00:00 15.8 0 Calma -- -- 0 -- -- 85
2019-04-14 23:00:00 16.1 0 Calma 7 Oeste 0 -- -- 81
2019-04-14 22:00:00 16.5 0 Calma 9 Oeste 0 -- -- 79
2019-04-14 21:00:00 17.3 0 Calma 8 Oeste 0 -- -- 74
2019-04-14 20:00:00 18.5 0 Calma 10 Sudoeste 0 -- -- 69
2019-04-14 19:00:00 19.2 0 Calma 9 Sudoeste 0 -- -- 66
2019-04-14 18:00:00 20 0 Calma 17 Sur 0 -- -- 63
2019-04-14 17:00:00 20.6 2 Sur 13 Sudoeste 0 -- -- 62
2019-04-14 16:00:00 19.9 0 Calma 9 Sudeste 0 -- -- 68
2019-04-14 15:00:00 19.2 0 Calma 9 Sur 0 -- -- 72
2019-04-14 14:00:00 18.4 0 Calma 5 Sudoeste 0 -- -- 77
2019-04-14 13:00:00 17.2 0 Calma 0 Calma 0 -- -- 84
2019-04-14 12:00:00 15.7 0 Calma 3 Nordeste 0 -- -- 91
2019-04-14 11:00:00 14.6 0 Calma -- -- 0.1 -- -- 96
2019-04-14 10:00:00 13.6 0 Calma -- -- 0 -- -- 96
2019-04-14 09:00:00 13.2 0 Calma -- -- 0 -- -- 97
2019-04-14 08:00:00 12.9 0 Calma 5 Nordeste 0 -- -- 97
2019-04-14 07:00:00 12.9 0 Calma -- -- 0 -- -- 96
2019-04-14 06:00:00 12.9 0 Calma -- -- 0 -- -- 96
2019-04-14 05:00:00 12.8 0 Calma -- -- 0 -- -- 96
2019-04-14 04:00:00 12.9 0 Calma -- -- 0 -- -- 96
2019-04-14 03:00:00 13 0 Calma -- -- 0 -- -- 96
2019-04-14 02:00:00 13.1 0 Calma -- -- 0 -- -- 95
2019-04-14 01:00:00 13.2 0 Calma -- -- 0.1 -- -- 95
2019-04-14 00:00:00 13.4 0 Calma -- -- 0 -- -- 95
2019-04-13 23:00:00 13.5 0 Calma -- -- 0 -- -- 95
2019-04-13 22:00:00 13.7 0 Calma -- -- 0 -- -- 93
2019-04-13 21:00:00 13.9 0 Calma -- -- 0 -- -- 92
2019-04-13 20:00:00 14.3 0 Calma -- -- 0 -- -- 91
2019-04-13 19:00:00 14.6 0 Calma -- -- 0 -- -- 90
2019-04-13 18:00:00 14.9 0 Calma -- -- 0.8 -- -- 86
2019-04-13 17:00:00 15.8 0 Calma 14 Sur 0 -- -- 71
2019-04-13 16:00:00 17.3 2 Sur 14 Sudoeste 0 -- -- 54
2019-04-13 15:00:00 18.1 2 Oeste 11 Noroeste 0 -- -- 49
2019-04-13 14:00:00 18.2 0 Calma 9 Sudeste 0 -- -- 47
2019-04-13 13:00:00 16.5 2 Oeste 8 Noroeste 0 -- -- 53
2019-04-13 12:00:00 14.3 0 Calma 5 Este 0 -- -- 69
2019-04-13 11:00:00 12.3 0 Calma 0 Calma 0 -- -- 79
2019-04-13 10:00:00 10.3 0 Calma -- -- 0 -- -- 91
2019-04-13 09:00:00 8.6 0 Calma -- -- 0 -- -- 93
2019-04-13 08:00:00 8.1 0 Calma -- -- 0 -- -- 93
2019-04-13 07:00:00 8.2 0 Calma 6 Nordeste 0 -- -- 92
2019-04-13 06:00:00 8.3 0 Calma 3 Este 0 -- -- 91
2019-04-13 05:00:00 8.4 0 Calma -- -- 0 -- -- 90
2019-04-13 04:00:00 8.5 0 Calma -- -- 0 -- -- 90
2019-04-13 03:00:00 8.8 0 Calma 0 Calma 0 -- -- 89
2019-04-13 02:00:00 9.2 0 Calma -- -- 0 -- -- 86
2019-04-13 01:00:00 10.1 0 Calma -- -- 0 -- -- 81
2019-04-13 00:00:00 11.2 0 Calma -- -- 0 -- -- 74
2019-04-12 23:00:00 12.1 0 Calma 2 Oeste 0 -- -- 68
2019-04-12 22:00:00 14 0 Calma 8 Noroeste 0 -- -- 59
2019-04-12 21:00:00 15.9 2 Noroeste 11 Oeste 0 -- -- 51
2019-04-12 20:00:00 17.8 6 Oeste 18 Oeste 0 -- -- 46
2019-04-12 19:00:00 20.3 5 Norte 15 Nordeste 0 -- -- 42
2019-04-12 18:00:00 20.6 3 Oeste 19 Noroeste 0 -- -- 38
2019-04-12 17:00:00 20.4 0 Calma 14 Oeste 0 -- -- 37
2019-04-12 16:00:00 19.8 0 Calma 14 Sudoeste 0 -- -- 39
2019-04-12 15:00:00 17.9 0 Calma 9 Oeste 0 -- -- 41
2019-04-12 14:00:00 16.7 0 Calma 10 Sudoeste 0 -- -- 44
2019-04-12 13:00:00 15 0 Calma 8 Sudeste 0 -- -- 55
2019-04-12 12:00:00 12.3 0 Calma 6 Sudeste 0 -- -- 65
2019-04-12 11:00:00 9.8 0 Calma 0 Calma 0 -- -- 88
2019-04-12 10:00:00 4.5 0 Calma -- -- 0 -- -- 98
2019-04-12 09:00:00 1.3 0 Calma -- -- 0 -- -- 98
2019-04-12 08:00:00 1.1 0 Calma 4 Nordeste 0 -- -- 97
2019-04-12 07:00:00 1.4 0 Calma -- -- 0 -- -- 95
2019-04-12 06:00:00 1.9 0 Calma -- -- 0 -- -- 95
2019-04-12 05:00:00 3 0 Calma 5 Nordeste 0 -- -- 95
2019-04-12 04:00:00 3.1 0 Calma -- -- 0 -- -- 94
2019-04-12 03:00:00 4 0 Calma 2 Norte 0 -- -- 93
2019-04-12 02:00:00 4.3 0 Calma -- -- 0 -- -- 91
2019-04-12 01:00:00 5.5 0 Calma -- -- 0 -- -- 88
2019-04-12 00:00:00 7 0 Calma -- -- 0 -- -- 81
2019-04-11 23:00:00 8.9 0 Calma -- -- 0 -- -- 71
2019-04-11 22:00:00 10.6 0 Calma 0 Calma 0 -- -- 62
2019-04-11 21:00:00 13.5 0 Calma 11 Norte 0 -- -- 51
2019-04-11 20:00:00 15.1 5 Nordeste 17 Nordeste 0 -- -- 44
2019-04-11 19:00:00 15.7 6 Norte 17 Nordeste 0 -- -- 43
2019-04-11 18:00:00 16.3 4 Nordeste 13 Nordeste 0 -- -- 41
2019-04-11 17:00:00 16.1 0 Calma 12 Este 0 -- -- 44
2019-04-11 16:00:00 15.8 0 Calma 12 Oeste 0 -- -- 50
2019-04-11 15:00:00 15.6 0 Calma 12 Noroeste 0 -- -- 59
2019-04-11 14:00:00 12.7 0 Calma 10 Oeste 0 -- -- 73
2019-04-11 13:00:00 9.8 0 Calma 7 Oeste 0 -- -- 89
2019-04-11 12:00:00 6.8 0 Calma 6 Sur 0 -- -- 99
2019-04-11 11:00:00 5.8 0 Calma 2 Nordeste 0 -- -- 99
2019-04-11 10:00:00 4.3 0 Calma 4 Nordeste 0 -- -- 99
2019-04-11 09:00:00 1.4 0 Calma -- -- 0 -- -- 98
2019-04-11 08:00:00 0.9 0 Calma -- -- 0 -- -- 97
2019-04-11 07:00:00 1.5 0 Calma 6 Nordeste 0 -- -- 97
2019-04-11 06:00:00 1.9 0 Calma -- -- 0 -- -- 96
2019-04-11 05:00:00 2.8 0 Calma 3 Norte 0 -- -- 96
2019-04-11 04:00:00 3.3 0 Calma -- -- 0 -- -- 95
2019-04-11 03:00:00 4.1 0 Calma -- -- 0 -- -- 95
2019-04-11 02:00:00 5.1 0 Calma -- -- 0 -- -- 94
2019-04-11 01:00:00 6.2 0 Calma 16 Sudoeste 0 -- -- 93
2019-04-11 00:00:00 7.1 0 Calma 8 Oeste 0 -- -- 90
2019-04-10 23:00:00 8.3 0 Calma 6 Nordeste 0 -- -- 81
2019-04-10 22:00:00 10.2 0 Calma 12 Nordeste 0 -- -- 74
2019-04-10 21:00:00 11.5 5 Norte 21 Nordeste 0 -- -- 66
2019-04-10 20:00:00 14 8 Norte 25 Nordeste 0 -- -- 60
2019-04-10 19:00:00 15.3 9 Norte 27 Norte 0.1 -- -- 59
2019-04-10 18:00:00 15.6 9 Norte 25 Nordeste 0 -- -- 59
2019-04-10 17:00:00 15.5 6 Noroeste 23 Noroeste 0 -- -- 57
2019-04-10 16:00:00 14.5 8 Noroeste 28 Norte 0 -- -- 64
2019-04-10 15:00:00 12.3 5 Noroeste 20 Noroeste 0 -- -- 72
2019-04-10 14:00:00 12.6 2 Norte 18 Noroeste 0 -- -- 71
2019-04-10 13:00:00 11.1 3 Norte 12 Sudeste 0 -- -- 90
2019-04-10 12:00:00 9.3 0 Calma 5 Sur 0.1 -- -- 96
2019-04-10 11:00:00 8.5 0 Calma 7 Sur 0 -- -- 99
2019-04-10 10:00:00 7.5 0 Calma 8 Sudoeste 0 -- -- 99
2019-04-10 09:00:00 6.3 0 Calma 6 Sur 0 -- -- 99
2019-04-10 08:00:00 6.3 0 Calma 8 Sudoeste 0 -- -- 99
2019-04-10 07:00:00 6.6 0 Calma 6 Sur 0 -- -- 99
2019-04-10 06:00:00 6.6 0 Calma 5 Oeste 0.6 -- -- 98
2019-04-10 05:00:00 6.9 0 Calma 6 Norte 0 -- -- 98
2019-04-10 04:00:00 7.2 0 Calma 2 Oeste 0 -- -- 97
2019-04-10 03:00:00 7.4 0 Calma 3 Oeste 0.1 -- -- 97
2019-04-10 02:00:00 7.4 0 Calma 5 Noroeste 0.1 -- -- 96
2019-04-10 01:00:00 7.9 0 Calma 6 Sudoeste 0.1 -- -- 96
2019-04-10 00:00:00 8.1 0 Calma 6 Noroeste 1.3 -- -- 96
2019-04-09 23:00:00 8.3 0 Calma 16 Oeste 1.4 -- -- 95
2019-04-09 22:00:00 8.3 3 Oeste 13 Noroeste 1.3 -- -- 92
2019-04-09 21:00:00 8.7 5 Oeste 21 Oeste 0.5 -- -- 90
2019-04-09 20:00:00 8.9 0 Calma 10 Sudoeste 0.2 -- -- 92
2019-04-09 19:00:00 9 0 Calma 23 Oeste 0.9 -- -- 88
2019-04-09 18:00:00 10.7 2 Sudoeste 22 Sudoeste 0.5 -- -- 82
2019-04-09 17:00:00 9.9 3 Sudoeste 28 Oeste 0.5 -- -- 85
2019-04-09 16:00:00 9.9 8 Oeste 24 Oeste 0.4 -- -- 77
2019-04-09 15:00:00 10.9 2 Oeste 19 Oeste 0.1 -- -- 79
2019-04-09 14:00:00 10 3 Sur 18 Sur 0.1 -- -- 82
2019-04-09 13:00:00 9.2 2 Sur 17 Sur 0 -- -- 88
2019-04-09 12:00:00 8.2 4 Sudoeste 16 Sudoeste 1 -- -- 90
2019-04-09 11:00:00 8.8 3 Sur 10 Oeste 0.2 -- -- 95
2019-04-09 10:00:00 7.4 0 Calma 8 Sudoeste 0.4 -- -- 97
2019-04-09 09:00:00 6.6 0 Calma 8 Oeste 0 -- -- 98
2019-04-09 08:00:00 6.9 0 Calma 8 Norte 0.2 -- -- 99
2019-04-09 07:00:00 7.2 0 Calma 13 Oeste 2.5 -- -- 99
2019-04-09 06:00:00 7.2 0 Calma 7 Sudeste 2.2 -- -- 98
2019-04-09 05:00:00 7.3 0 Calma 6 Sudeste 2.5 -- -- 98
2019-04-09 04:00:00 7.2 0 Calma 14 Sudeste 1.1 -- -- 96
2019-04-09 03:00:00 7.2 0 Calma 9 Sur 2 -- -- 96
2019-04-09 02:00:00 7.7 0 Calma 12 Sur 0.5 -- -- 96
2019-04-09 01:00:00 7.6 0 Calma 12 Sudeste 0 -- -- 96
2019-04-09 00:00:00 7.3 0 Calma 11 Sudoeste 0.6 -- -- 95
2019-04-08 23:00:00 7.8 0 Calma 18 Sudoeste 3.3 -- -- 93
2019-04-08 22:00:00 8.9 2 Sudoeste 13 Sudoeste 0 -- -- 91
2019-04-08 21:00:00 8.9 2 Sudeste 8 Sudeste 0.1 -- -- 90
2019-04-08 20:00:00 9.7 0 Calma 13 Sudoeste 0.1 -- -- 87
2019-04-08 19:00:00 9.1 5 Sudoeste 24 Noroeste 1.4 -- -- 86
2019-04-08 18:00:00 10.8 9 Oeste 26 Sudoeste 0.3 -- -- 63
2019-04-08 17:00:00 13.3 4 Sudoeste 34 Oeste 0 -- -- 58
2019-04-08 16:00:00 13.6 4 Sudoeste 23 Sudoeste 0.1 -- -- 60
2019-04-08 15:00:00 14.3 4 Sur 37 Oeste 0 -- -- 61
2019-04-08 14:00:00 13 4 Oeste 23 Oeste 0 -- -- 66
2019-04-08 13:00:00 11.4 4 Sur 15 Sur 0 -- -- 73
2019-04-08 12:00:00 10 0 Calma 11 Noroeste 0.2 -- -- 86
2019-04-08 11:00:00 9.5 0 Calma 8 Sudoeste 0 -- -- 89
2019-04-08 10:00:00 8.2 0 Calma 10 Oeste 0.1 -- -- 98
2019-04-08 09:00:00 6 0 Calma 0 Calma 0 -- -- 97
2019-04-08 08:00:00 5.8 0 Calma 7 Sudoeste 0.4 -- -- 96
2019-04-08 07:00:00 5.3 0 Calma 7 Oeste 0 -- -- 96
2019-04-08 06:00:00 6.7 0 Calma 6 Oeste 0 -- -- 96
2019-04-08 05:00:00 8 0 Calma 7 Oeste 0 -- -- 96
2019-04-08 04:00:00 8.6 0 Calma 13 Oeste 0.1 -- -- 97
2019-04-08 03:00:00 9.1 0 Calma 10 Oeste 0.7 -- -- 95
2019-04-08 02:00:00 9.4 0 Calma 9 Noroeste 0.2 -- -- 95
2019-04-08 01:00:00 9.7 7 Noroeste 22 Sudoeste 0 -- -- 95
2019-04-08 00:00:00 10.2 7 Oeste 27 Oeste 0.1 -- -- 98
2019-04-07 23:00:00 8.9 0 Calma 7 Este 1.6 -- -- 98
2019-04-07 22:00:00 8.5 0 Calma 7 Nordeste 3 -- -- 98
2019-04-07 21:00:00 8.4 3 Nordeste 13 Nordeste 4.8 -- -- 98
2019-04-07 20:00:00 8.3 2 Nordeste 10 Este 7.2 -- -- 97
2019-04-07 19:00:00 8.4 0 Calma 14 Este 1.8 -- -- 95
2019-04-07 18:00:00 8.1 6 Este 18 Este 0.8 -- -- 94
2019-04-07 17:00:00 8.2 5 Sudeste 18 Sur 1.1 -- -- 92
2019-04-07 16:00:00 8.7 4 Sudeste 19 Sudeste 1.1 -- -- 94
2019-04-07 15:00:00 8.3 0 Calma 4 Sur 1.4 -- -- 94
2019-04-07 14:00:00 9.3 0 Calma 4 Sudoeste 0.5 -- -- 94
2019-04-07 13:00:00 8.3 0 Calma 6 Este 0 -- -- 95
2019-04-07 12:00:00 6.3 0 Calma 5 Sur 0 -- -- 99
2019-04-07 11:00:00 -- -- -- -- -- -- -- -- --
2019-04-07 10:00:00 -- -- -- -- -- -- -- -- --
2019-04-07 09:00:00 -- -- -- -- -- -- -- -- --
2019-04-07 08:00:00 -- -- -- -- -- -- -- -- --
2019-04-07 07:00:00 -- -- -- -- -- -- -- -- --
2019-04-07 06:00:00 -- -- -- -- -- -- -- -- --
2019-04-07 05:00:00 -- -- -- -- -- -- -- -- --
2019-04-07 04:00:00 -- -- -- -- -- -- -- -- --
2019-04-07 03:00:00 -- -- -- -- -- -- -- -- --
2019-04-07 02:00:00 -- -- -- -- -- -- -- -- --
2019-04-07 01:00:00 -- -- -- -- -- -- -- -- --
2019-04-07 00:00:00 -- -- -- -- -- -- -- -- --
2019-04-06 23:00:00 -- -- -- -- -- -- -- -- --
2019-04-06 22:00:00 -- -- -- -- -- -- -- -- --
2019-04-06 21:00:00 -- -- -- -- -- -- -- -- --
2019-04-06 20:00:00 -- -- -- -- -- -- -- -- --
2019-04-06 19:00:00 -- -- -- -- -- -- -- -- --
2019-04-06 18:00:00 -- -- -- -- -- -- -- -- --
2019-04-06 17:00:00 9.9 0 Calma 17 Oeste 0.1 -- -- 81
2019-04-06 16:00:00 7 11 Noroeste 36 Noroeste 0.7 -- -- 84
2019-04-06 15:00:00 7.4 6 Oeste 26 Noroeste 0.8 -- -- 93
2019-04-06 14:00:00 6.9 5 Oeste 14 Sudoeste 1.1 -- -- 93
2019-04-06 13:00:00 7 4 Oeste 15 Oeste 0.5 -- -- 93
2019-04-06 12:00:00 7.3 4 Oeste 17 Oeste 0.4 -- -- 94
2019-04-06 11:00:00 5.8 4 Oeste 20 Noroeste 1 -- -- 97
2019-04-06 10:00:00 5.3 3 Sudoeste 15 Sur 1.1 -- -- 99
2019-04-06 09:00:00 4.8 0 Calma 14 Oeste 1.2 -- -- 99
2019-04-06 08:00:00 4.7 0 Calma 13 Sudeste 3.5 -- -- 99
2019-04-06 07:00:00 4.6 3 Sur 17 Sur 0.6 -- -- 99
2019-04-06 06:00:00 4.7 0 Calma 22 Oeste 2 -- -- 99
2019-04-06 05:00:00 4.5 2 Sur 18 Sur 1.5 -- -- 99
2019-04-06 04:00:00 4.6 2 Sur 13 Sur 1 -- -- 98
2019-04-06 03:00:00 4.6 0 Calma 26 Sudoeste 3.6 -- -- 97
2019-04-06 02:00:00 4.9 0 Calma 6 Sudeste 0.5 -- -- 97
2019-04-06 01:00:00 4.6 0 Calma 23 Oeste 2.2 -- -- 97
2019-04-06 00:00:00 5.4 3 Oeste 10 Noroeste 1.4 -- -- 97
2019-04-05 23:00:00 5.4 0 Calma -- -- 0.1 -- -- 95
2019-04-05 22:00:00 5.7 0 Calma 6 Sur 0 -- -- 93
2019-04-05 21:00:00 6.3 0 Calma 15 Noroeste 0 -- -- 90
2019-04-05 20:00:00 7.1 2 Oeste 15 Noroeste 0.1 -- -- 86
2019-04-05 19:00:00 7.4 0 Calma 14 Sur 0.3 -- -- 92
2019-04-05 18:00:00 8 0 Calma 15 Sur 0.6 -- -- 92
2019-04-05 17:00:00 7.5 0 Calma 13 Sur 0.7 -- -- 89
2019-04-05 16:00:00 8 3 Sur 14 Sur 1.2 -- -- 94
2019-04-05 15:00:00 5.3 2 Oeste 21 Sudeste 2.8 -- -- 93
2019-04-05 14:00:00 6.4 3 Sur 19 Oeste 1.7 -- -- 92
2019-04-05 13:00:00 7.7 0 Calma 14 Sur 0.2 -- -- 85
2019-04-05 12:00:00 6.8 3 Sur 12 Sudoeste 0.3 -- -- 92
2019-04-05 11:00:00 6.8 0 Calma 11 Sudoeste 0 -- -- 93
2019-04-05 10:00:00 4.6 0 Calma 6 Sur 0.5 -- -- 99
2019-04-05 09:00:00 3.4 0 Calma -- -- 0 -- -- 99
2019-04-05 08:00:00 3.1 0 Calma 0 Calma 0 -- -- 99
2019-04-05 07:00:00 3.4 0 Calma -- -- 0.2 -- -- 99
2019-04-05 06:00:00 3.7 0 Calma 6 Sudeste 0.9 -- -- 99
2019-04-05 05:00:00 3.9 0 Calma 6 Noroeste 0.6 -- -- 99
2019-04-05 04:00:00 4.1 0 Calma 15 Oeste 0.5 -- -- 99
2019-04-05 03:00:00 4.7 0 Calma -- -- 0.5 -- -- 99
2019-04-05 02:00:00 4.7 0 Calma 5 Este 0.6 -- -- 99
2019-04-05 01:00:00 4.7 0 Calma 0 Calma 0.1 -- -- 99
2019-04-05 00:00:00 5 0 Calma 3 Este 0.1 -- -- 98
2019-04-04 23:00:00 5 0 Calma 4 Este 1.8 -- -- 97
2019-04-04 22:00:00 5.4 0 Calma 19 Noroeste 4.1 -- -- 96
2019-04-04 21:00:00 6.7 4 Oeste 21 Oeste 5.2 -- -- 96
2019-04-04 20:00:00 7 0 Calma 15 Sur 0.9 -- -- 94
2019-04-04 19:00:00 7.1 3 Sudoeste 19 Sur 0.2 -- -- 93
2019-04-04 18:00:00 7.2 3 Sur 21 Sudoeste 0.2 -- -- 91
2019-04-04 17:00:00 7.7 2 Sur 17 Sur 0 -- -- 85
2019-04-04 16:00:00 8.3 3 Sudoeste 19 Sudoeste 0 -- -- 78
2019-04-04 15:00:00 8.1 2 Sur 19 Sudoeste 0 -- -- 75
2019-04-04 14:00:00 8.6 3 Sur 19 Sur 0 -- -- 72
2019-04-04 13:00:00 8.3 0 Calma 15 Sur 0 -- -- 79
2019-04-04 12:00:00 6.2 0 Calma 6 Sudoeste 0 -- -- 90
2019-04-04 11:00:00 5 0 Calma 5 Sudoeste 0 -- -- 98
2019-04-04 10:00:00 2.2 0 Calma -- -- 0 -- -- 99
2019-04-04 09:00:00 0.7 0 Calma 3 Nordeste 0 -- -- 99
2019-04-04 08:00:00 0.4 0 Calma -- -- 0 -- -- 99
2019-04-04 07:00:00 0.4 0 Calma -- -- 0 -- -- 99
2019-04-04 06:00:00 0.7 0 Calma 0 Calma 0 -- -- 99
2019-04-04 05:00:00 0 0 Calma -- -- 0 -- -- 98
2019-04-04 04:00:00 0.3 0 Calma -- -- 0 -- -- 97
2019-04-04 03:00:00 0.9 0 Calma 5 Nordeste 0 -- -- 96
2019-04-04 02:00:00 1.6 0 Calma -- -- 0 -- -- 95
2019-04-04 01:00:00 2.9 0 Calma 6 Este 0 -- -- 95
2019-04-04 00:00:00 3.2 0 Calma 8 Norte 0 -- -- 92
2019-04-03 23:00:00 4.2 3 Norte 19 Norte 0.2 -- -- 87
2019-04-03 22:00:00 5.9 6 Noroeste 17 Noroeste 0 -- -- 72
2019-04-03 21:00:00 7 10 Noroeste 26 Noroeste 0 -- -- 64
2019-04-03 20:00:00 9.3 10 Norte 31 Noroeste 0 -- -- 51
2019-04-03 19:00:00 11.9 11 Noroeste 32 Noroeste 0 -- -- 51
2019-04-03 18:00:00 13 10 Norte 27 Noroeste 0.1 -- -- 47
2019-04-03 17:00:00 10.6 12 Norte 44 Norte 0.1 -- -- 66
2019-04-03 16:00:00 12 11 Norte 24 Norte 0 -- -- 60
2019-04-03 15:00:00 11.7 12 Norte 33 Nordeste 0 -- -- 58
2019-04-03 14:00:00 9.4 10 Norte 31 Noroeste 0.1 -- -- 70
2019-04-03 13:00:00 9 7 Norte 30 Nordeste 0.1 -- -- 77
2019-04-03 12:00:00 8.4 8 Noroeste 23 Noroeste 0 -- -- 73
2019-04-03 11:00:00 7.9 7 Norte 18 Norte 0 -- -- 81
2019-04-03 10:00:00 5.5 0 Calma 9 Norte 0 -- -- 97
2019-04-03 09:00:00 4 0 Calma 9 Noroeste 0 -- -- 97
2019-04-03 08:00:00 4.5 2 Noroeste 12 Noroeste 0 -- -- 97
2019-04-03 07:00:00 4.7 0 Calma 2 Noroeste 0 -- -- 95
2019-04-03 06:00:00 5.5 0 Calma 17 Oeste 0 -- -- 94
2019-04-03 05:00:00 5.4 0 Calma 6 Noroeste 0.1 -- -- 92
2019-04-03 04:00:00 5.8 0 Calma 14 Noroeste 0 -- -- 91
2019-04-03 03:00:00 5.2 5 Noroeste 12 Norte 0 -- -- 90
2019-04-03 02:00:00 5.8 0 Calma 10 Nordeste 0 -- -- 87
2019-04-03 01:00:00 6.9 0 Calma 7 Nordeste 0 -- -- 83
2019-04-03 00:00:00 7.8 0 Calma 9 Oeste 0 -- -- 80
2019-04-02 23:00:00 8.3 0 Calma 12 Nordeste 0 -- -- 76
2019-04-02 22:00:00 9.1 8 Norte 23 Norte 0 -- -- 69
2019-04-02 21:00:00 10.6 5 Norte 32 Noroeste 0 -- -- 62
2019-04-02 20:00:00 12.2 11 Noroeste 24 Norte 0 -- -- 58
2019-04-02 19:00:00 16.2 8 Norte 26 Norte 0 -- -- 51
2019-04-02 18:00:00 16 9 Norte 27 Norte 0 -- -- 51
2019-04-02 17:00:00 17.1 2 Norte 15 Noroeste 0 -- -- 49
2019-04-02 16:00:00 16.1 4 Noroeste 16 Oeste 0 -- -- 51
2019-04-02 15:00:00 15.7 2 Oeste 10 Sudeste 0 -- -- 56
2019-04-02 14:00:00 13 4 Oeste 13 Sudoeste 0 -- -- 64
2019-04-02 13:00:00 11 0 Calma 11 Sur 0 -- -- 81
2019-04-02 12:00:00 8.6 0 Calma 6 Sur 0 -- -- 91
2019-04-02 11:00:00 7.7 0 Calma 6 Sur 0 -- -- 94
2019-04-02 10:00:00 6.1 0 Calma 8 Sudeste 0 -- -- 99
2019-04-02 09:00:00 3.8 0 Calma 5 Norte 0 -- -- 99
2019-04-02 08:00:00 3.3 0 Calma 4 Nordeste 0 -- -- 99
2019-04-02 07:00:00 2.8 0 Calma 5 Este 0 -- -- 99
2019-04-02 06:00:00 3.8 0 Calma -- -- 0 -- -- 99
2019-04-02 05:00:00 5.1 0 Calma 8 Nordeste 0 -- -- 99
2019-04-02 04:00:00 4.3 0 Calma 6 Nordeste 0 -- -- 97
2019-04-02 03:00:00 5.4 0 Calma 3 Norte 0 -- -- 96
2019-04-02 02:00:00 6.7 0 Calma 6 Norte 0 -- -- 95
2019-04-02 01:00:00 7.9 0 Calma -- -- 0 -- -- 92
2019-04-02 00:00:00 9.5 0 Calma 0 Calma 0 -- -- 89
2019-04-01 23:00:00 11.1 0 Calma 13 Noroeste 0 -- -- 85
2019-04-01 22:00:00 12 0 Calma 9 Oeste 0 -- -- 80
2019-04-01 21:00:00 14.2 4 Noroeste 19 Oeste 0 -- -- 72
2019-04-01 20:00:00 16.6 5 Oeste 17 Oeste 0 -- -- 64
2019-04-01 19:00:00 16.4 0 Calma 6 Oeste 0 -- -- 73
2019-04-01 18:00:00 14.3 0 Calma 15 Oeste 0.1 -- -- 80
2019-04-01 17:00:00 12.9 0 Calma 20 Oeste 0.2 -- -- 83
2019-04-01 16:00:00 14.2 4 Noroeste 31 Noroeste 0.7 -- -- 68
2019-04-01 15:00:00 21.8 0 Calma 11 Sudeste 0 -- -- 39
2019-04-01 14:00:00 20.2 0 Calma 12 Este 0 -- -- 42
2019-04-01 13:00:00 19.2 2 Sudeste 13 Este 0 -- -- 46
2019-04-01 12:00:00 15.9 4 Este 17 Este 0 -- -- 52
2019-04-01 11:00:00 13.1 0 Calma -- -- 0 -- -- 73
2019-04-01 10:00:00 5.9 0 Calma -- -- 0 -- -- 97
2019-04-01 09:00:00 3.6 0 Calma -- -- 0 -- -- 97
2019-04-01 08:00:00 3.6 0 Calma -- -- 0 -- -- 96
2019-04-01 07:00:00 3.9 0 Calma -- -- 0 -- -- 94
2019-04-01 06:00:00 4.5 0 Calma -- -- 0 -- -- 93
2019-04-01 05:00:00 5 0 Calma -- -- 0 -- -- 91
2019-04-01 04:00:00 5.6 0 Calma -- -- 0 -- -- 88
2019-04-01 03:00:00 6.3 0 Calma -- -- 0 -- -- 86
2019-04-01 02:00:00 7.2 0 Calma -- -- 0 -- -- 81
2019-04-01 01:00:00 8.7 0 Calma -- -- 0 -- -- 76
2019-04-01 00:00:00 10 0 Calma -- -- 0 -- -- 69
2019-03-31 23:00:00 12.1 0 Calma 0 Calma 0 -- -- 60
2019-03-31 22:00:00 14.2 0 Calma 24 Este 0 -- -- 53
2019-03-31 21:00:00 15.5 6 Norte 19 Norte 0 -- -- 48
2019-03-31 20:00:00 18.9 7 Norte 27 Norte 0 -- -- 41
2019-03-31 19:00:00 21.4 7 Noroeste 20 Sudoeste 0 -- -- 37
2019-03-31 18:00:00 21 4 Oeste 18 Oeste 0 -- -- 35
2019-03-31 17:00:00 20.6 0 Calma 26 Sudeste 0 -- -- 35
2019-03-31 16:00:00 20.7 4 Sudeste 17 Sur 0 -- -- 34
2019-03-31 15:00:00 22 4 Sudeste 26 Sudeste 0 -- -- 35
2019-03-31 14:00:00 21.1 0 Calma 10 Sur 0 -- -- 42
2019-03-31 13:00:00 17.9 0 Calma 3 Sur 0 -- -- 52
2019-03-31 12:00:00 14.4 0 Calma 0 Calma 0 -- -- 66
2019-03-31 11:00:00 8.1 0 Calma -- -- 0 -- -- 92
2019-03-31 10:00:00 5.3 0 Calma -- -- 0 -- -- 96
2019-03-31 09:00:00 3.7 0 Calma -- -- 0 -- -- 96
2019-03-31 08:00:00 3.7 0 Calma -- -- 0 -- -- 94
2019-03-31 07:00:00 4 0 Calma -- -- 0 -- -- 92
2019-03-31 06:00:00 4.8 0 Calma 7 Nordeste 0 -- -- 91
2019-03-31 05:00:00 5.2 0 Calma -- -- 0 -- -- 88
2019-03-31 03:00:00 6.6 0 Calma -- -- 0 -- -- 79
2019-03-31 01:00:00 8 0 Calma -- -- 0 -- -- 72
2019-03-31 00:00:00 10 0 Calma -- -- 0 -- -- 65
2019-03-30 23:00:00 11.4 0 Calma 8 Sur 0 -- -- 53
2019-03-30 22:00:00 13.8 0 Calma 8 Nordeste 0 -- -- 46
2019-03-30 21:00:00 14.9 0 Calma 15 Noroeste 0 -- -- 43
2019-03-30 20:00:00 16.4 4 Noroeste 19 Noroeste 0 -- -- 37
2019-03-30 19:00:00 19.4 5 Oeste 20 Noroeste 0 -- -- 34
2019-03-30 18:00:00 20 7 Oeste 19 Oeste 0 -- -- 35
2019-03-30 17:00:00 20 0 Calma 10 Oeste 0 -- -- 35
2019-03-30 16:00:00 20.8 2 Oeste 14 Sur 0 -- -- 34
2019-03-30 15:00:00 21.3 0 Calma 13 Sudeste 0 -- -- 35
2019-03-30 14:00:00 22.3 0 Calma 15 Sudoeste 0 -- -- 34
2019-03-30 13:00:00 20.6 0 Calma 8 Sudoeste 0 -- -- 37
2019-03-30 12:00:00 17.9 0 Calma 6 Noroeste 0 -- -- 47
2019-03-30 11:00:00 15.2 0 Calma 5 Este 0 -- -- 54
2019-03-30 10:00:00 10.8 0 Calma 0 Calma 0 -- -- 72
2019-03-30 09:00:00 4.2 0 Calma 0 Calma 0 -- -- 93
2019-03-30 08:00:00 2.6 0 Calma 0 Calma 0 -- -- 91
2019-03-30 07:00:00 2.9 0 Calma 0 Calma 0 -- -- 88
2019-03-30 06:00:00 3.7 0 Calma -- -- 0 -- -- 85
2019-03-30 05:00:00 4.6 0 Calma 4 Norte 0 -- -- 82
2019-03-30 04:00:00 5.2 0 Calma 5 Nordeste 0 -- -- 79
2019-03-30 03:00:00 6.3 0 Calma -- -- 0 -- -- 75
2019-03-30 02:00:00 7.2 0 Calma -- -- 0 -- -- 74
2019-03-30 01:00:00 7.8 0 Calma 2 Nordeste 0 -- -- 70
2019-03-30 00:00:00 9.1 0 Calma 8 Nordeste 0 -- -- 66
2019-03-29 23:00:00 9.9 0 Calma -- -- 0 -- -- 62
2019-03-29 22:00:00 11.8 0 Calma -- -- 0 -- -- 51
2019-03-29 21:00:00 14.8 0 Calma 10 Oeste 0 -- -- 42
2019-03-29 20:00:00 16.5 0 Calma 19 Noroeste 0 -- -- 39
2019-03-29 19:00:00 19.3 8 Noroeste 22 Oeste 0 -- -- 38
2019-03-29 18:00:00 21.4 11 Noroeste 25 Oeste 0 -- -- 36
2019-03-29 17:00:00 22.4 8 Oeste 23 Oeste 0 -- -- 35
2019-03-29 16:00:00 24.4 2 Sudoeste 15 Sur 0 -- -- 32
2019-03-29 15:00:00 22.7 3 Sudeste 15 Sudeste 0 -- -- 31
2019-03-29 14:00:00 22.5 0 Calma 12 Sudeste 0 -- -- 37
2019-03-29 13:00:00 20.9 0 Calma 9 Nordeste 0 -- -- 38
2019-03-29 12:00:00 18.3 0 Calma 10 Nordeste 0 -- -- 42
2019-03-29 11:00:00 15 0 Calma 9 Este 0 -- -- 48
2019-03-29 10:00:00 12.2 0 Calma -- -- 0 -- -- 72
2019-03-29 09:00:00 4.1 0 Calma -- -- 0 -- -- 96
2019-03-29 08:00:00 2.6 0 Calma 0 Calma 0 -- -- 95
2019-03-29 07:00:00 2.9 0 Calma -- -- 0 -- -- 94
2019-03-29 06:00:00 3.5 0 Calma -- -- 0 -- -- 93
2019-03-29 05:00:00 4.2 0 Calma -- -- 0 -- -- 91
2019-03-29 04:00:00 5 0 Calma -- -- 0 -- -- 88
2019-03-29 03:00:00 5.9 0 Calma 2 Norte 0 -- -- 85
2019-03-29 02:00:00 6.5 0 Calma -- -- 0 -- -- 83
2019-03-29 01:00:00 7.5 0 Calma -- -- 0 -- -- 78
2019-03-29 00:00:00 9 0 Calma -- -- 0 -- -- 72
2019-03-28 23:00:00 10.8 0 Calma -- -- 0 -- -- 66
2019-03-28 22:00:00 13.2 0 Calma -- -- 0 -- -- 56
2019-03-28 21:00:00 16.2 0 Calma 12 Norte 0 -- -- 46
2019-03-28 20:00:00 19.5 0 Calma 12 Este 0 -- -- 38
2019-03-28 19:00:00 23.9 0 Calma 6 Sudeste 0 -- -- 30
2019-03-28 18:00:00 24.4 0 Calma 11 Sur 0 -- -- 30
2019-03-28 17:00:00 24.1 3 Sur 12 Sur 0 -- -- 30
2019-03-28 16:00:00 24.7 0 Calma 13 Sudeste 0 -- -- 29
2019-03-28 15:00:00 23.7 0 Calma 17 Sudeste 0 -- -- 30
2019-03-28 14:00:00 22.9 0 Calma 14 Sudeste 0 -- -- 33
2019-03-28 13:00:00 19.2 2 Este 10 Sur 0 -- -- 34
2019-03-28 12:00:00 17 0 Calma 10 Sudeste 0 -- -- 40
2019-03-28 11:00:00 13.7 0 Calma 3 Este 0 -- -- 52
2019-03-28 10:00:00 9.5 0 Calma 0 Calma 0 -- -- 80
2019-03-28 09:00:00 3.1 0 Calma -- -- 0 -- -- 98
2019-03-28 08:00:00 1.3 0 Calma 0 Calma 0 -- -- 96
2019-03-28 07:00:00 1.8 0 Calma 6 Norte 0 -- -- 95
2019-03-28 06:00:00 2 0 Calma -- -- 0 -- -- 94
2019-03-28 05:00:00 2.7 0 Calma -- -- 0 -- -- 93
2019-03-28 04:00:00 3.5 0 Calma -- -- 0 -- -- 91
2019-03-28 03:00:00 4.3 0 Calma -- -- 0 -- -- 88
2019-03-28 02:00:00 5.3 0 Calma -- -- 0 -- -- 85
2019-03-28 01:00:00 6.7 0 Calma -- -- 0 -- -- 81
2019-03-28 00:00:00 8.4 0 Calma -- -- 0 -- -- 75
2019-03-27 23:00:00 10.1 0 Calma -- -- 0 -- -- 69
2019-03-27 22:00:00 12.3 0 Calma 6 Oeste 0 -- -- 61
2019-03-27 21:00:00 14.9 0 Calma 11 Nordeste 0 -- -- 48
2019-03-27 20:00:00 18.4 0 Calma 15 Nordeste 0 -- -- 36
2019-03-27 19:00:00 21.6 4 Nordeste 21 Nordeste 0 -- -- 29
2019-03-27 18:00:00 22.9 6 Nordeste 19 Nordeste 0 -- -- 25
2019-03-27 17:00:00 24.6 0 Calma 13 Oeste 0 -- -- 24
2019-03-27 16:00:00 23.3 0 Calma 11 Sudeste 0 -- -- 24
2019-03-27 15:00:00 22.6 0 Calma 11 Este 0 -- -- 23
2019-03-27 14:00:00 21.4 0 Calma 12 Nordeste 0 -- -- 24
2019-03-27 13:00:00 19.9 0 Calma 18 Sudeste 0 -- -- 25
2019-03-27 12:00:00 18 0 Calma 17 Este 0 -- -- 28
2019-03-27 11:00:00 14.7 0 Calma 13 Este 0 -- -- 34
2019-03-27 10:00:00 10 0 Calma 3 Norte 0 -- -- 58
2019-03-27 09:00:00 1.8 0 Calma -- -- 0 -- -- 84
2019-03-27 08:00:00 -0.1 0 Calma -- -- 0 -- -- 87
2019-03-27 07:00:00 0.2 0 Calma -- -- 0 -- -- 82
2019-03-27 06:00:00 1.2 0 Calma 0 Calma 0 -- -- 78
2019-03-27 05:00:00 2.4 0 Calma 5 Nordeste 0 -- -- 74
2019-03-27 04:00:00 4.3 0 Calma 4 Nordeste 0 -- -- 70
2019-03-27 03:00:00 4.5 0 Calma 5 Este 0 -- -- 70
2019-03-27 02:00:00 5.8 0 Calma -- -- 0 -- -- 62
2019-03-27 01:00:00 9.3 0 Calma 5 Nordeste 0 -- -- 51
2019-03-27 00:00:00 11.9 2 Nordeste 13 Nordeste 0 -- -- 49